Time;durP1;ratioP1;P1;durP2;ratioP2;P2;SDS_P1;SDS_P2;PMS_P1;PMS_P2;Temp;Humidity;BMP_temperature;BMP_pressure;BME280_temperature;BME280_humidity;BME280_pressure;Samples;Min_cycle;Max_cycle;Signal;HPM_P1;HPM_P2
2022/06/26 00:02:05;;;;;;;12.80;10.48;;;25.20;63.00;;;;;;4900539;29;20100;-78
2022/06/26 00:04:33;;;;;;;12.88;10.32;;;25.30;63.10;;;;;;4931011;23;20044;-74
2022/06/26 00:07:00;;;;;;;12.98;10.65;;;25.30;63.20;;;;;;4968086;28;20419;-73
2022/06/26 00:09:27;;;;;;;13.05;10.30;;;25.30;63.00;;;;;;4953969;28;20041;-74
2022/06/26 00:11:53;;;;;;;14.05;10.77;;;25.30;63.10;;;;;;4954116;28;20058;-74
2022/06/26 00:14:18;;;;;;;13.45;10.68;;;25.20;62.90;;;;;;4953903;28;20463;-74
2022/06/26 00:16:44;;;;;;;14.48;10.55;;;25.30;63.30;;;;;;4953643;28;20039;-74
2022/06/26 00:19:10;;;;;;;13.98;10.60;;;25.30;63.20;;;;;;4952917;28;20102;-74
2022/06/26 00:21:36;;;;;;;12.50;10.02;;;25.30;63.10;;;;;;4952610;28;20027;-74
2022/06/26 00:24:01;;;;;;;12.77;10.07;;;25.30;63.10;;;;;;4953852;28;20558;-74
2022/06/26 00:26:27;;;;;;;12.43;10.48;;;25.30;63.00;;;;;;4953505;28;20387;-74
2022/06/26 00:28:53;;;;;;;12.73;10.30;;;25.20;63.20;;;;;;4953760;29;20542;-74
2022/06/26 00:31:19;;;;;;;11.90;9.80;;;25.30;62.90;;;;;;4952668;29;20507;-74
2022/06/26 00:33:45;;;;;;;13.63;10.30;;;25.30;62.90;;;;;;4952626;28;20074;-74
2022/06/26 00:36:11;;;;;;;12.48;10.10;;;25.30;62.90;;;;;;4953784;29;20059;-74
2022/06/26 00:38:37;;;;;;;12.10;10.05;;;25.30;62.80;;;;;;4936482;29;20494;-73
2022/06/26 00:41:03;;;;;;;13.10;10.20;;;25.30;62.80;;;;;;4968571;28;20039;-73
2022/06/26 00:43:29;;;;;;;12.85;10.13;;;25.30;62.80;;;;;;4968339;28;20047;-72
2022/06/26 00:45:55;;;;;;;12.63;9.93;;;25.30;62.70;;;;;;4968142;28;20039;-72
2022/06/26 00:48:21;;;;;;;12.65;10.13;;;25.30;62.70;;;;;;4952479;29;20102;-73
2022/06/26 00:50:47;;;;;;;13.73;10.18;;;25.30;62.70;;;;;;4952422;29;20031;-73
2022/06/26 00:53:13;;;;;;;13.57;10.27;;;25.30;62.70;;;;;;4953706;28;20038;-72
2022/06/26 00:55:39;;;;;;;11.57;9.55;;;25.30;62.70;;;;;;4967998;28;20027;-72
2022/06/26 00:58:06;;;;;;;12.68;8.95;;;25.30;62.70;;;;;;4969385;28;20498;-72
2022/06/26 01:00:32;;;;;;;11.00;9.25;;;25.30;62.70;;;;;;4956200;28;20110;-73
2022/06/26 01:02:58;;;;;;;12.27;9.93;;;25.30;62.70;;;;;;4956098;28;20119;-73
2022/06/26 01:05:24;;;;;;;11.98;9.68;;;25.30;62.70;;;;;;4957014;29;20263;-73
2022/06/26 01:07:50;;;;;;;11.88;9.82;;;25.30;62.70;;;;;;4955853;28;20035;-73
2022/06/26 01:10:17;;;;;;;11.20;9.43;;;25.30;62.80;;;;;;4955872;29;20106;-73
2022/06/26 01:12:44;;;;;;;11.95;9.73;;;25.30;62.80;;;;;;4957190;28;20098;-73
2022/06/26 01:15:11;;;;;;;13.13;10.48;;;25.30;62.80;;;;;;4955894;29;20063;-73
2022/06/26 01:17:39;;;;;;;12.82;9.90;;;25.30;62.90;;;;;;4955602;28;20074;-73
2022/06/26 01:20:07;;;;;;;12.93;10.50;;;25.20;62.90;;;;;;4939840;29;20484;-72
2022/06/26 01:22:33;;;;;;;13.43;9.73;;;25.20;62.80;;;;;;4955782;29;20043;-72
2022/06/26 01:24:58;;;;;;;12.82;10.13;;;25.20;62.80;;;;;;4955617;29;20511;-73
2022/06/26 01:27:26;;;;;;;12.93;9.85;;;25.30;62.90;;;;;;4955625;29;20400;-72
2022/06/26 01:29:52;;;;;;;12.48;9.98;;;25.30;62.90;;;;;;4956797;28;20043;-72
2022/06/26 01:32:19;;;;;;;11.85;9.38;;;25.30;63.00;;;;;;4955576;28;20423;-72
2022/06/26 01:34:45;;;;;;;11.65;9.45;;;25.20;62.80;;;;;;4955501;29;20114;-72
2022/06/26 01:37:11;;;;;;;12.80;9.85;;;25.30;62.90;;;;;;4955287;28;20475;-72
2022/06/26 01:39:37;;;;;;;13.10;9.70;;;25.20;62.80;;;;;;4955346;29;20027;-72
2022/06/26 01:42:04;;;;;;;12.40;9.98;;;25.30;62.90;;;;;;4955406;29;20050;-72
2022/06/26 01:44:30;;;;;;;11.52;9.23;;;25.20;62.90;;;;;;4955326;29;20042;-72
2022/06/26 01:46:56;;;;;;;11.75;8.68;;;25.30;63.00;;;;;;4971129;28;20038;-72
2022/06/26 01:49:28;;;;;;;13.05;9.48;;;25.20;62.80;;;;;;4955219;29;20493;-73
2022/06/26 01:51:54;;;;;;;11.60;9.30;;;25.20;62.80;;;;;;4955290;29;20038;-72
2022/06/26 01:54:20;;;;;;;11.98;9.65;;;25.20;62.80;;;;;;4971203;28;20019;-72
2022/06/26 01:56:47;;;;;;;12.18;9.45;;;25.30;63.00;;;;;;4956253;28;20023;-72
2022/06/26 01:59:13;;;;;;;11.85;9.52;;;25.20;62.90;;;;;;4955182;29;20033;-72
2022/06/26 02:01:43;;;;;;;11.57;8.95;;;25.20;62.90;;;;;;4939111;29;20037;-72
2022/06/26 02:04:16;;;;;;;12.27;8.97;;;25.20;62.90;;;;;;4954746;28;20026;-73
2022/06/26 02:06:43;;;;;;;11.77;8.85;;;25.20;62.80;;;;;;4955880;28;20030;-73
2022/06/26 02:14:46;;;;;;;10.15;8.48;;;25.30;62.60;;;;;;4970855;28;20035;-73
2022/06/26 02:17:12;;;;;;;11.77;9.32;;;25.30;62.60;;;;;;4954543;29;20028;-73
2022/06/26 02:19:38;;;;;;;11.60;9.02;;;25.30;62.60;;;;;;4954964;29;20562;-73
2022/06/26 02:22:04;;;;;;;12.00;9.57;;;25.30;62.50;;;;;;4954815;29;20047;-73
2022/06/26 02:24:30;;;;;;;10.43;8.57;;;25.30;62.60;;;;;;4955803;29;20035;-73
2022/06/26 02:26:56;;;;;;;11.82;9.57;;;25.30;62.60;;;;;;4970394;28;20525;-73
2022/06/26 02:29:21;;;;;;;11.00;8.95;;;25.30;62.50;;;;;;4970505;28;20042;-73
2022/06/26 02:31:48;;;;;;;11.07;8.80;;;25.30;62.60;;;;;;4954447;28;20031;-73
2022/06/26 02:34:14;;;;;;;11.68;9.27;;;25.30;62.50;;;;;;4954686;29;20027;-73
2022/06/26 02:36:42;;;;;;;11.38;9.32;;;25.30;62.50;;;;;;4955421;28;20027;-73
2022/06/26 02:39:08;;;;;;;12.05;9.38;;;25.30;62.60;;;;;;4954622;29;20023;-73
2022/06/26 02:41:34;;;;;;;11.80;9.05;;;25.30;62.70;;;;;;4955681;28;20482;-72
2022/06/26 02:44:00;;;;;;;11.07;9.10;;;25.30;62.60;;;;;;4954241;28;20027;-73
2022/06/26 02:46:27;;;;;;;11.18;8.75;;;25.30;62.70;;;;;;4953947;28;20032;-72
2022/06/26 02:48:55;;;;;;;11.10;8.77;;;25.20;62.80;;;;;;4954159;28;20027;-73
2022/06/26 02:51:21;;;;;;;12.10;10.05;;;25.20;62.60;;;;;;4954142;29;20032;-73
2022/06/26 02:53:47;;;;;;;13.10;9.63;;;25.20;62.80;;;;;;4954042;28;20107;-72
2022/06/26 02:56:13;;;;;;;10.55;8.48;;;25.20;62.70;;;;;;4969940;28;20419;-73
2022/06/26 02:58:40;;;;;;;12.00;9.50;;;25.20;62.70;;;;;;4954088;28;20028;-73
2022/06/26 03:01:06;;;;;;;10.95;8.57;;;25.20;62.80;;;;;;4970159;28;20035;-73
2022/06/26 03:03:35;;;;;;;11.27;8.93;;;25.20;62.60;;;;;;4955001;28;20039;-72
2022/06/26 03:06:01;;;;;;;10.57;8.63;;;25.20;62.70;;;;;;4969617;28;20122;-73
2022/06/26 03:08:27;;;;;;;10.70;8.88;;;25.20;62.80;;;;;;4969952;28;20460;-73
2022/06/26 03:10:53;;;;;;;11.05;8.82;;;25.20;62.70;;;;;;4969827;28;20440;-73
2022/06/26 03:13:19;;;;;;;11.73;9.68;;;25.20;62.70;;;;;;4953719;29;20023;-73
2022/06/26 03:15:45;;;;;;;10.82;8.77;;;25.20;62.80;;;;;;4953387;29;20030;-73
2022/06/26 03:18:12;;;;;;;10.90;8.60;;;25.20;62.60;;;;;;4953648;29;20106;-73
2022/06/26 03:20:40;;;;;;;10.98;8.85;;;25.20;62.70;;;;;;4954842;28;20106;-73
2022/06/26 03:23:09;;;;;;;10.88;8.25;;;25.20;62.70;;;;;;4969851;28;20031;-73
2022/06/26 03:25:35;;;;;;;12.35;8.98;;;25.20;62.60;;;;;;4953298;29;20099;-73
2022/06/26 03:28:01;;;;;;;10.90;8.68;;;25.20;62.80;;;;;;4953629;28;20063;-73
2022/06/26 03:30:27;;;;;;;10.55;8.05;;;25.20;62.70;;;;;;4953405;29;20094;-74
2022/06/26 03:32:53;;;;;;;10.98;9.10;;;25.20;62.90;;;;;;4953398;29;20039;-73
2022/06/26 03:35:19;;;;;;;10.48;8.70;;;25.20;62.60;;;;;;4953223;29;20114;-74
2022/06/26 03:37:46;;;;;;;10.88;8.50;;;25.20;62.60;;;;;;4969149;28;20031;-74
2022/06/26 03:40:12;;;;;;;11.40;8.80;;;25.20;62.90;;;;;;4953370;29;20292;-74
2022/06/26 03:42:39;;;;;;;11.18;8.68;;;25.20;62.60;;;;;;4953337;29;20042;-74
2022/06/26 03:45:06;;;;;;;11.10;8.75;;;25.20;62.70;;;;;;4954356;29;20039;-74
2022/06/26 03:47:33;;;;;;;11.30;9.07;;;25.30;62.50;;;;;;4952824;28;20115;-73
2022/06/26 03:49:59;;;;;;;11.20;8.68;;;25.20;62.50;;;;;;4969103;28;20031;-73
2022/06/26 03:52:25;;;;;;;10.20;8.52;;;25.30;62.50;;;;;;4953090;29;20387;-73
2022/06/26 03:54:54;;;;;;;9.93;8.40;;;25.30;62.40;;;;;;4969071;28;20423;-73
2022/06/26 03:57:23;;;;;;;11.23;8.50;;;25.30;62.50;;;;;;4954113;28;20753;-74
2022/06/26 03:59:51;;;;;;;10.25;7.97;;;25.30;62.40;;;;;;4969071;28;20038;-73
2022/06/26 04:02:37;;;;;;;11.45;9.10;;;25.30;62.40;;;;;;4947028;28;20047;-73
2022/06/26 04:05:04;;;;;;;10.68;8.57;;;25.30;62.30;;;;;;4968855;28;20554;-73
2022/06/26 04:07:31;;;;;;;10.75;8.60;;;25.30;62.40;;;;;;4952633;29;20039;-73
2022/06/26 04:10:11;;;;;;;10.77;8.63;;;25.30;62.30;;;;;;4952936;29;20121;-72
2022/06/26 04:12:37;;;;;;;11.05;8.82;;;25.30;62.30;;;;;;4968883;28;20032;-73
2022/06/26 04:15:03;;;;;;;10.98;8.45;;;25.30;62.30;;;;;;4952737;29;20026;-73
2022/06/26 04:17:29;;;;;;;10.55;8.43;;;25.30;62.30;;;;;;4952392;29;20057;-73
2022/06/26 04:20:06;;;;;;;11.80;9.10;;;25.30;62.40;;;;;;4952707;29;20039;-73
2022/06/26 04:22:32;;;;;;;12.15;8.77;;;25.30;62.40;;;;;;4952706;28;20062;-73
2022/06/26 04:24:58;;;;;;;10.45;8.45;;;25.20;62.40;;;;;;4952582;29;20035;-74
2022/06/26 04:27:24;;;;;;;10.65;8.45;;;25.20;62.50;;;;;;4936547;29;20398;-74
2022/06/26 04:29:50;;;;;;;10.65;8.40;;;25.20;62.50;;;;;;4953831;28;20031;-74
2022/06/26 04:32:16;;;;;;;10.60;8.45;;;25.30;62.50;;;;;;4952241;28;20369;-73
2022/06/26 04:34:44;;;;;;;9.80;8.25;;;25.20;62.40;;;;;;4952256;28;20038;-73
2022/06/26 04:37:10;;;;;;;12.23;8.55;;;25.20;62.50;;;;;;4952211;29;20034;-73
2022/06/26 04:39:36;;;;;;;11.50;9.25;;;25.20;62.40;;;;;;4952521;28;20403;-73
2022/06/26 04:42:04;;;;;;;10.57;8.13;;;25.20;62.50;;;;;;4952467;29;20041;-74
2022/06/26 04:44:34;;;;;;;10.23;8.48;;;25.20;62.50;;;;;;4952576;28;20042;-73
2022/06/26 04:47:00;;;;;;;11.10;8.35;;;25.20;62.50;;;;;;4968530;28;20027;-74
2022/06/26 04:49:30;;;;;;;9.50;7.95;;;25.20;62.50;;;;;;4952575;29;20042;-73
2022/06/26 04:51:57;;;;;;;11.45;8.02;;;25.20;62.50;;;;;;4952562;28;20031;-74
2022/06/26 04:54:28;;;;;;;10.45;8.55;;;25.30;62.60;;;;;;4968429;28;20051;-73
2022/06/26 04:56:53;;;;;;;10.32;7.95;;;25.20;62.50;;;;;;4968070;28;20023;-74
2022/06/26 04:59:20;;;;;;;10.40;8.25;;;25.20;62.50;;;;;;4968377;28;20468;-74
2022/06/26 05:01:45;;;;;;;10.55;8.32;;;25.20;62.50;;;;;;4968260;28;20075;-73
2022/06/26 05:04:15;;;;;;;;;;;25.20;62.60;;;;;;4952621;29;20038;-73
2022/06/26 05:07:01;;;;;;;10.15;8.18;;;25.20;62.50;;;;;;4932351;29;19910;-72
2022/06/26 05:09:33;;;;;;;10.85;8.57;;;25.20;62.40;;;;;;4968495;28;20476;-73
2022/06/26 05:11:59;;;;;;;9.55;7.88;;;25.20;62.40;;;;;;4936290;29;20031;-72
2022/06/26 05:14:32;;;;;;;10.18;8.23;;;25.20;62.50;;;;;;4968183;28;20488;-72
2022/06/26 05:17:14;;;;;;;10.27;8.05;;;25.20;62.50;;;;;;4968058;28;20050;-73
2022/06/26 05:19:41;;;;;;;9.95;7.88;;;25.20;62.40;;;;;;4968103;28;20114;-72
2022/06/26 05:22:09;;;;;;;9.50;7.53;;;25.20;62.40;;;;;;4952124;28;20488;-72
2022/06/26 05:24:38;;;;;;;11.18;8.10;;;25.20;62.30;;;;;;4936602;29;20554;-72
2022/06/26 05:27:05;;;;;;;9.05;7.72;;;25.30;62.30;;;;;;4952048;29;20039;-72
2022/06/26 05:29:31;;;;;;;10.80;8.27;;;25.30;62.30;;;;;;4968050;28;20103;-73
2022/06/26 05:31:57;;;;;;;9.27;7.70;;;25.20;62.20;;;;;;4952052;29;20031;-72
2022/06/26 05:34:23;;;;;;;10.05;8.43;;;25.20;62.20;;;;;;4968040;28;20462;-72
2022/06/26 05:36:50;;;;;;;10.85;8.38;;;25.20;62.20;;;;;;4935833;29;20031;-73
2022/06/26 05:39:15;;;;;;;9.93;7.85;;;25.30;62.30;;;;;;4951846;29;20023;-73
2022/06/26 05:41:43;;;;;;;10.02;7.78;;;25.30;62.30;;;;;;4967991;28;20098;-73
2022/06/26 05:44:09;;;;;;;10.38;8.38;;;25.30;62.30;;;;;;4951844;28;20110;-72
2022/06/26 05:46:41;;;;;;;10.20;8.23;;;25.30;62.30;;;;;;4954946;29;20391;-72
2022/06/26 05:49:27;;;;;;;10.30;8.30;;;25.20;62.20;;;;;;4955599;29;20066;-72
2022/06/26 05:52:29;;;;;;;9.55;7.90;;;25.30;62.30;;;;;;4897316;29;20474;-73
2022/06/26 05:55:24;;;;;;;9.90;7.72;;;25.30;62.30;;;;;;4919921;28;20647;-73
2022/06/26 05:58:19;;;;;;;10.32;8.50;;;25.20;62.20;;;;;;4937427;28;20046;-73
2022/06/26 06:01:11;;;;;;;9.43;7.55;;;25.20;62.20;;;;;;4940926;28;20400;-73
2022/06/26 06:03:37;;;;;;;11.50;7.72;;;25.30;62.30;;;;;;4956202;28;20032;-72
2022/06/26 06:06:03;;;;;;;10.88;7.68;;;25.30;62.30;;;;;;4983107;23;20063;-82
2022/06/26 06:08:29;;;;;;;9.60;7.75;;;25.30;62.30;;;;;;4971017;28;20031;-81
2022/06/26 06:10:55;;;;;;;10.98;7.88;;;25.30;62.30;;;;;;4971366;28;20487;-81
2022/06/26 06:13:21;;;;;;;10.25;7.80;;;25.30;62.30;;;;;;4955316;29;20035;-80
2022/06/26 06:15:47;;;;;;;10.70;8.00;;;25.30;62.30;;;;;;4971180;28;20027;-79
2022/06/26 06:18:14;;;;;;;9.70;7.80;;;25.30;62.30;;;;;;4971669;28;20122;-81
2022/06/26 06:20:41;;;;;;;9.65;8.00;;;25.20;62.20;;;;;;4971866;28;20110;-81
2022/06/26 06:23:08;;;;;;;9.50;7.70;;;25.30;62.30;;;;;;4971174;28;20047;-81
2022/06/26 06:25:34;;;;;;;10.32;8.20;;;25.30;62.50;;;;;;4955978;29;20031;-82
2022/06/26 06:28:03;;;;;;;9.17;7.60;;;25.20;62.20;;;;;;4955963;29;20511;-82
2022/06/26 06:30:33;;;;;;;;;;;25.30;62.30;;;;;;4971733;28;20101;-81
2022/06/26 06:32:59;;;;;;;9.75;7.72;;;25.30;62.20;;;;;;4971191;28;20379;-81
2022/06/26 06:35:32;;;;;;;9.73;7.82;;;25.30;62.30;;;;;;4970579;28;20031;-81
2022/06/26 06:37:58;;;;;;;9.30;7.45;;;25.30;62.20;;;;;;4938806;29;20130;-81
2022/06/26 06:40:24;;;;;;;10.20;7.97;;;25.30;62.20;;;;;;4970954;28;20027;-81
2022/06/26 06:42:53;;;;;;;9.15;7.65;;;25.30;62.30;;;;;;4954751;29;20035;-81
2022/06/26 06:45:23;;;;;;;8.65;7.32;;;25.30;62.30;;;;;;4970669;28;20035;-83
2022/06/26 06:47:56;;;;;;;9.40;7.38;;;25.30;62.30;;;;;;4970383;28;20038;-80
2022/06/26 06:50:38;;;;;;;9.35;7.60;;;25.30;62.30;;;;;;4955732;28;20027;-81
2022/06/26 06:53:05;;;;;;;9.32;7.50;;;25.30;62.30;;;;;;4970597;28;20031;-80
2022/06/26 06:55:31;;;;;;;10.45;8.35;;;25.30;62.30;;;;;;4969818;28;20078;-81
2022/06/26 06:57:58;;;;;;;9.30;7.53;;;25.30;62.30;;;;;;4954544;29;20036;-80
2022/06/26 07:00:24;;;;;;;9.07;7.50;;;25.30;62.30;;;;;;4970350;28;20341;-78
2022/06/26 07:02:51;;;;;;;8.77;7.40;;;25.30;62.10;;;;;;4970206;28;20058;-80
2022/06/26 07:05:19;;;;;;;9.15;7.82;;;25.30;62.20;;;;;;4970040;28;20636;-79
2022/06/26 07:07:48;;;;;;;9.55;7.47;;;25.30;62.10;;;;;;4969985;28;20494;-80
2022/06/26 07:10:14;;;;;;;8.40;7.10;;;25.30;62.10;;;;;;4970199;28;20034;-80
2022/06/26 07:12:49;;;;;;;9.40;7.43;;;25.30;62.10;;;;;;4970058;28;20464;-80
2022/06/26 07:15:15;;;;;;;9.10;7.50;;;25.30;62.10;;;;;;4970050;28;20495;-79
2022/06/26 07:17:41;;;;;;;9.23;7.72;;;25.30;62.10;;;;;;4969591;28;20035;-79
2022/06/26 07:20:09;;;;;;;9.07;7.28;;;25.30;62.10;;;;;;4969956;28;20163;-78
2022/06/26 07:22:35;;;;;;;9.32;7.25;;;25.30;62.00;;;;;;4969776;28;20027;-79
2022/06/26 07:25:11;;;;;;;10.35;7.97;;;25.30;62.00;;;;;;4969739;28;20031;-79
2022/06/26 07:27:45;;;;;;;10.55;7.68;;;25.30;62.10;;;;;;4969726;28;20027;-78
2022/06/26 07:30:12;;;;;;;8.60;7.28;;;25.30;62.10;;;;;;4954834;29;20028;-79
2022/06/26 07:32:53;;;;;;;9.23;7.47;;;25.30;62.10;;;;;;4953905;29;20043;-79
2022/06/26 07:35:19;;;;;;;9.05;7.35;;;25.30;62.10;;;;;;4969498;28;20038;-77
2022/06/26 07:37:46;;;;;;;8.57;7.22;;;25.30;62.10;;;;;;4969282;28;20118;-77
2022/06/26 07:40:12;;;;;;;8.82;7.22;;;25.30;62.20;;;;;;4969537;28;20475;-78
2022/06/26 07:42:40;;;;;;;8.07;6.78;;;25.30;62.30;;;;;;4969613;28;20503;-78
2022/06/26 07:45:06;;;;;;;9.95;7.95;;;25.30;62.10;;;;;;4969446;28;20027;-78
2022/06/26 07:47:47;;;;;;;9.25;7.05;;;25.30;62.10;;;;;;4969168;28;20039;-78
2022/06/26 07:50:15;;;;;;;9.38;7.32;;;25.30;62.10;;;;;;4969401;28;20058;-78
2022/06/26 07:52:41;;;;;;;8.75;7.25;;;25.30;62.10;;;;;;4954703;29;20090;-79
2022/06/26 07:55:07;;;;;;;8.35;7.05;;;25.30;62.00;;;;;;4954782;29;20463;-78
2022/06/26 07:57:33;;;;;;;9.20;7.40;;;25.30;62.10;;;;;;4969426;28;20066;-78
2022/06/26 07:59:59;;;;;;;8.55;7.30;;;25.30;62.10;;;;;;4955105;29;20082;-79
2022/06/26 08:02:24;;;;;;;8.60;7.38;;;25.30;62.00;;;;;;4954775;29;20087;-78
2022/06/26 08:04:52;;;;;;;9.18;7.15;;;25.30;62.00;;;;;;4954253;29;20062;-78
2022/06/26 08:07:18;;;;;;;9.70;7.82;;;25.30;62.00;;;;;;4968806;28;20106;-78
2022/06/26 08:09:44;;;;;;;8.88;7.28;;;25.30;62.10;;;;;;4954269;29;20026;-78
2022/06/26 08:12:09;;;;;;;8.85;6.85;;;25.30;62.10;;;;;;4954354;29;20543;-77
2022/06/26 08:14:36;;;;;;;8.15;7.07;;;25.30;62.10;;;;;;4969256;28;20023;-77
2022/06/26 08:17:02;;;;;;;7.85;6.57;;;25.30;62.10;;;;;;4952768;29;20030;-77
2022/06/26 08:19:28;;;;;;;8.63;7.30;;;25.30;62.10;;;;;;4954284;29;20031;-77
2022/06/26 08:22:02;;;;;;;9.35;7.55;;;25.30;62.10;;;;;;4969190;28;20032;-78
2022/06/26 08:24:30;;;;;;;9.02;6.95;;;25.30;62.10;;;;;;4954096;29;20027;-77
2022/06/26 08:26:56;;;;;;;7.90;6.78;;;25.30;62.10;;;;;;4968505;28;20050;-77
2022/06/26 08:29:22;;;;;;;9.13;7.20;;;25.30;62.10;;;;;;4953949;29;20490;-77
2022/06/26 08:31:48;;;;;;;9.23;6.80;;;25.30;62.10;;;;;;4954254;29;20027;-78
2022/06/26 08:34:13;;;;;;;8.68;7.15;;;25.30;62.00;;;;;;4953674;29;20024;-78
2022/06/26 08:36:39;;;;;;;8.27;6.70;;;25.40;62.10;;;;;;4953837;29;20118;-79
2022/06/26 08:39:08;;;;;;;7.75;6.63;;;25.30;62.00;;;;;;4953087;29;20110;-78
2022/06/26 08:41:40;;;;;;;7.43;6.57;;;25.40;62.00;;;;;;4953891;28;20027;-78
2022/06/26 08:44:06;;;;;;;9.98;7.47;;;25.40;62.00;;;;;;4952520;29;20498;-77
2022/06/26 08:46:37;;;;;;;9.10;7.03;;;25.40;61.90;;;;;;4953557;29;20032;-78
2022/06/26 08:49:10;;;;;;;8.02;6.65;;;25.40;61.90;;;;;;4968486;28;20031;-79
2022/06/26 08:51:42;;;;;;;9.30;7.18;;;25.40;61.90;;;;;;4953669;29;20027;-78
2022/06/26 08:54:09;;;;;;;10.18;7.30;;;25.40;61.90;;;;;;4968429;28;20038;-78
2022/06/26 08:56:38;;;;;;;8.30;7.00;;;25.40;62.00;;;;;;4968249;28;20392;-78
2022/06/26 08:59:04;;;;;;;7.88;6.38;;;25.40;61.90;;;;;;4953713;28;20031;-78
2022/06/26 09:01:30;;;;;;;8.82;7.00;;;25.40;62.00;;;;;;4953661;28;20091;-79
2022/06/26 09:03:56;;;;;;;8.10;6.82;;;25.40;61.90;;;;;;4952686;29;20031;-78
2022/06/26 09:06:22;;;;;;;8.00;6.60;;;25.40;61.90;;;;;;4952143;28;20043;-78
2022/06/26 09:08:51;;;;;;;8.77;6.97;;;25.40;62.00;;;;;;4936642;29;20305;-78
2022/06/26 09:11:18;;;;;;;8.98;7.05;;;25.40;62.00;;;;;;4952383;29;20035;-78
2022/06/26 09:13:45;;;;;;;8.20;6.63;;;25.30;62.00;;;;;;4968156;28;20056;-79
2022/06/26 09:16:14;;;;;;;8.68;6.90;;;25.40;62.00;;;;;;4968034;28;20464;-78
2022/06/26 09:18:41;;;;;;;8.50;6.72;;;25.40;62.00;;;;;;4953881;28;20434;-78
2022/06/26 09:21:09;;;;;;;8.48;6.70;;;25.40;61.90;;;;;;4955961;29;20031;-78
2022/06/26 09:23:36;;;;;;;8.02;6.47;;;25.40;62.00;;;;;;4957166;29;20620;-79
2022/06/26 09:26:03;;;;;;;8.20;6.97;;;25.40;62.10;;;;;;4955867;29;20031;-78
2022/06/26 09:28:29;;;;;;;8.50;6.95;;;25.40;62.00;;;;;;4972059;28;20038;-79
2022/06/26 09:31:03;;;;;;;7.85;6.43;;;25.40;62.00;;;;;;4957159;28;20032;-77
2022/06/26 09:33:32;;;;;;;9.02;7.28;;;25.40;62.00;;;;;;4957157;28;20027;-77
2022/06/26 09:35:59;;;;;;;9.15;7.25;;;25.40;62.00;;;;;;4956487;28;20388;-77
2022/06/26 09:38:27;;;;;;;8.70;6.97;;;25.40;62.60;;;;;;4971853;28;20031;-78
2022/06/26 09:40:58;;;;;;;8.93;7.32;;;25.40;61.90;;;;;;4956854;29;20106;-78
2022/06/26 09:43:42;;;;;;;7.65;6.72;;;25.40;62.10;;;;;;4956707;28;20035;-78
2022/06/26 09:46:11;;;;;;;8.65;6.55;;;25.30;62.00;;;;;;4956509;28;20046;-78
2022/06/26 09:48:40;;;;;;;7.80;6.22;;;25.40;62.10;;;;;;4955750;29;20028;-78
2022/06/26 09:51:13;;;;;;;8.20;6.38;;;25.40;62.10;;;;;;4956788;29;20028;-78
2022/06/26 09:53:39;;;;;;;7.53;6.32;;;25.30;62.00;;;;;;4956721;28;20412;-78
2022/06/26 09:56:06;;;;;;;9.90;7.07;;;25.30;62.10;;;;;;4955213;29;20365;-80
2022/06/26 09:58:32;;;;;;;7.68;6.53;;;25.30;62.10;;;;;;4956694;28;20030;-80
2022/06/26 10:06:30;;;;;;;6.95;6.18;;;25.40;62.20;;;;;;4956237;29;20035;-79
2022/06/26 10:09:02;;;;;;;7.30;6.07;;;25.40;62.10;;;;;;4956236;29;20023;-80
2022/06/26 10:11:38;;;;;;;7.63;6.15;;;25.40;62.10;;;;;;4955168;29;20027;-81
2022/06/26 10:14:20;;;;;;;6.82;5.90;;;25.40;62.00;;;;;;4956438;29;20356;-79
2022/06/26 10:17:20;;;;;;;7.70;6.65;;;25.40;62.00;;;;;;4971296;28;20031;-80
2022/06/26 10:20:00;;;;;;;8.13;6.53;;;25.40;62.00;;;;;;4956286;29;20444;-80
2022/06/26 10:22:26;;;;;;;8.07;6.57;;;25.40;62.00;;;;;;4970877;28;20468;-80
2022/06/26 10:24:57;;;;;;;8.52;7.03;;;25.40;62.00;;;;;;4954901;29;20038;-81
2022/06/26 10:27:23;;;;;;;8.35;6.60;;;25.40;61.90;;;;;;4955809;29;20035;-80
2022/06/26 10:29:49;;;;;;;7.95;6.72;;;25.40;62.00;;;;;;4955920;29;20039;-80
2022/06/26 10:32:22;;;;;;;7.85;6.38;;;25.40;61.90;;;;;;4955255;28;20050;-80
2022/06/26 10:34:55;;;;;;;7.13;6.13;;;25.40;61.90;;;;;;4956058;29;20392;-79
2022/06/26 10:37:21;;;;;;;7.53;6.38;;;25.40;61.90;;;;;;4955723;28;20392;-80
2022/06/26 10:39:49;;;;;;;8.63;6.90;;;25.40;61.90;;;;;;4954813;29;20039;-80
2022/06/26 10:45:10;;;;;;;7.63;6.05;;;25.50;61.90;;;;;;4970658;28;20106;-79
2022/06/26 10:47:49;;;;;;;8.20;6.82;;;25.50;61.90;;;;;;4954137;29;20492;-80
2022/06/26 10:50:25;;;;;;;7.85;6.47;;;25.40;62.40;;;;;;4955703;29;20031;-80
2022/06/26 10:52:52;;;;;;;7.25;6.20;;;25.40;61.90;;;;;;4954711;29;20035;-79
2022/06/26 10:55:18;;;;;;;7.18;5.88;;;25.40;61.90;;;;;;4955450;28;20405;-79
2022/06/26 10:57:43;;;;;;;7.72;6.03;;;25.40;61.90;;;;;;4954180;29;20043;-79
2022/06/26 11:00:12;;;;;;;7.30;5.88;;;25.40;61.90;;;;;;4955419;29;20031;-79
2022/06/26 11:02:46;;;;;;;7.97;6.43;;;25.40;61.80;;;;;;4955510;29;20546;-79
2022/06/26 11:05:14;;;;;;;7.38;6.18;;;25.40;62.40;;;;;;4970155;28;20063;-80
2022/06/26 11:07:45;;;;;;;8.25;6.38;;;25.40;61.90;;;;;;4953915;29;20070;-80
2022/06/26 11:10:12;;;;;;;8.10;6.47;;;25.40;61.80;;;;;;4955116;29;20479;-80
2022/06/26 11:12:47;;;;;;;7.63;6.20;;;25.40;61.90;;;;;;4970104;28;20101;-80
2022/06/26 11:15:33;;;;;;;7.18;5.90;;;25.40;61.90;;;;;;4969922;28;20046;-80
2022/06/26 11:18:01;;;;;;;7.13;5.97;;;25.40;61.80;;;;;;4938024;29;20042;-79
2022/06/26 11:20:52;;;;;;;8.00;6.35;;;25.50;61.90;;;;;;4970110;28;20034;-80
2022/06/26 11:23:22;;;;;;;7.15;6.10;;;25.40;61.80;;;;;;4954184;29;20483;-79
2022/06/26 11:25:55;;;;;;;7.88;6.35;;;25.40;61.90;;;;;;4954657;29;20110;-78
2022/06/26 11:28:26;;;;;;;7.13;5.90;;;25.50;61.90;;;;;;4969793;28;20082;-78
2022/06/26 11:30:51;;;;;;;7.43;5.97;;;25.50;61.90;;;;;;4953603;29;20038;-77
2022/06/26 11:33:32;;;;;;;6.70;5.65;;;25.40;61.90;;;;;;4954756;29;20387;-77
2022/06/26 11:36:04;;;;;;;7.28;6.18;;;25.40;62.00;;;;;;4954413;29;20030;-77
2022/06/26 11:38:30;;;;;;;7.88;6.45;;;25.40;61.80;;;;;;4953826;29;20086;-77
2022/06/26 11:41:01;;;;;;;7.82;6.45;;;25.40;61.90;;;;;;4954967;29;20035;-77
2022/06/26 11:43:28;;;;;;;7.07;5.97;;;25.50;61.90;;;;;;4955364;28;20483;-79
2022/06/26 11:45:56;;;;;;;7.15;5.68;;;25.50;61.90;;;;;;4954612;29;20035;-78
2022/06/26 11:48:22;;;;;;;6.90;5.85;;;25.50;61.90;;;;;;4954486;29;20039;-79
2022/06/26 11:50:53;;;;;;;7.68;6.13;;;25.40;61.80;;;;;;4969160;28;20031;-79
2022/06/26 11:53:27;;;;;;;7.57;6.15;;;25.50;61.90;;;;;;4953476;29;20361;-79
2022/06/26 11:55:55;;;;;;;6.65;5.78;;;25.40;61.80;;;;;;4954053;28;20031;-79
2022/06/26 11:58:24;;;;;;;7.18;6.30;;;25.50;61.80;;;;;;4953022;29;20472;-79
2022/06/26 12:01:02;;;;;;;6.57;5.82;;;25.50;61.80;;;;;;4969874;28;20027;-79
2022/06/26 12:03:28;;;;;;;7.80;5.88;;;25.50;61.80;;;;;;4954768;29;20027;-79
2022/06/26 12:05:54;;;;;;;7.53;6.10;;;25.50;61.80;;;;;;4954129;29;20412;-79
2022/06/26 12:08:20;;;;;;;7.65;6.07;;;25.50;61.80;;;;;;4954776;29;20024;-79
2022/06/26 12:10:49;;;;;;;7.60;6.30;;;25.50;61.80;;;;;;4954362;29;20503;-79
2022/06/26 12:13:31;;;;;;;7.10;5.72;;;25.50;61.80;;;;;;4953148;29;20071;-78
2022/06/26 12:16:05;;;;;;;7.60;5.95;;;25.50;61.80;;;;;;4953853;28;20468;-78
2022/06/26 12:18:34;;;;;;;7.28;6.22;;;25.50;61.80;;;;;;4954344;28;20452;-80
2022/06/26 12:21:00;;;;;;;7.13;5.93;;;25.50;61.80;;;;;;4954087;28;20027;-80
2022/06/26 12:23:34;;;;;;;6.90;5.75;;;25.50;61.80;;;;;;4954044;28;20031;-81
2022/06/26 12:26:05;;;;;;;7.07;6.03;;;25.50;61.80;;;;;;4936681;29;20404;-81
2022/06/26 12:28:31;;;;;;;6.80;5.88;;;25.50;61.80;;;;;;4969121;28;20082;-80
2022/06/26 12:31:00;;;;;;;7.72;6.05;;;25.50;61.80;;;;;;4953911;29;20043;-80
2022/06/26 12:33:25;;;;;;;7.40;6.00;;;25.50;61.90;;;;;;4968678;28;20023;-80
2022/06/26 12:35:52;;;;;;;7.38;6.28;;;25.50;61.80;;;;;;4968066;28;20027;-81
2022/06/26 12:38:26;;;;;;;7.57;6.00;;;25.50;61.80;;;;;;4952770;29;20063;-81
2022/06/26 12:40:52;;;;;;;7.00;5.85;;;25.40;61.70;;;;;;4952766;29;20043;-80
2022/06/26 12:43:18;;;;;;;7.55;5.97;;;25.50;61.90;;;;;;4968630;28;20122;-80
2022/06/26 12:45:44;;;;;;;6.72;5.80;;;25.40;61.80;;;;;;4952392;29;20263;-79
2022/06/26 12:48:10;;;;;;;7.75;6.20;;;25.50;61.90;;;;;;4953852;29;20049;-80
2022/06/26 12:50:36;;;;;;;7.82;6.13;;;25.40;61.80;;;;;;4953626;28;20027;-80
2022/06/26 12:53:02;;;;;;;6.25;5.15;;;25.50;62.00;;;;;;4968676;28;20062;-80
2022/06/26 12:55:28;;;;;;;6.13;5.45;;;25.50;61.90;;;;;;4955720;29;20138;-79
2022/06/26 12:57:54;;;;;;;7.25;5.80;;;25.50;62.00;;;;;;4972275;28;20483;-80
2022/06/26 13:00:20;;;;;;;6.55;5.50;;;25.40;61.90;;;;;;4957468;29;20031;-80
2022/06/26 13:02:46;;;;;;;6.32;5.47;;;25.50;62.00;;;;;;4957655;29;20031;-80
2022/06/26 13:05:12;;;;;;;7.75;5.65;;;25.50;61.90;;;;;;4956286;29;20120;-81